createdAt,value
2023-06-14T00:01:54.047Z,1.00
2023-06-14T00:04:56.644Z,1.20
2023-06-14T00:08:00.053Z,1.05
2023-06-14T00:11:02.644Z,0.93
2023-06-14T00:14:05.613Z,1.00
2023-06-14T00:17:09.667Z,1.00
2023-06-14T00:20:13.721Z,1.10
2023-06-14T00:23:16.246Z,0.95
2023-06-14T00:26:18.459Z,1.00
2023-06-14T00:29:21.420Z,1.20
2023-06-14T00:32:24.321Z,1.00
2023-06-14T00:35:28.091Z,1.02
2023-06-14T00:38:31.994Z,1.10
2023-06-14T00:41:34.958Z,1.10
2023-06-14T00:44:38.477Z,1.05
2023-06-14T00:47:41.807Z,1.08
2023-06-14T00:50:45.761Z,1.00
2023-06-14T00:53:48.484Z,1.23
2023-06-14T00:56:52.644Z,1.17
2023-06-14T00:59:55.320Z,1.10
2023-06-14T01:02:58.129Z,1.20
2023-06-14T01:06:00.967Z,1.27
2023-06-14T01:09:04.481Z,1.30
2023-06-14T01:12:07.402Z,1.23
2023-06-14T01:15:10.522Z,1.10
2023-06-14T01:18:14.780Z,1.13
2023-06-14T01:21:17.840Z,1.38
2023-06-14T01:24:20.189Z,1.13
2023-06-14T01:27:22.855Z,1.20
2023-06-14T01:30:25.533Z,1.30
2023-06-14T01:33:29.009Z,1.20
2023-06-14T01:36:34.601Z,0.90
2023-06-14T01:39:37.673Z,1.20
2023-06-14T01:42:40.143Z,1.05
2023-06-14T01:45:43.263Z,0.90
2023-06-14T01:48:45.755Z,0.90
2023-06-14T01:51:49.710Z,0.90
2023-06-14T01:54:53.086Z,1.00
2023-06-14T01:57:56.627Z,1.02
2023-06-14T02:00:59.456Z,1.02
2023-06-14T02:04:03.897Z,0.95
2023-06-14T02:07:06.255Z,0.90
2023-06-14T02:10:09.438Z,1.15
2023-06-14T02:13:12.154Z,0.98
2023-06-14T02:16:16.135Z,1.10
2023-06-14T02:19:19.289Z,1.10
2023-06-14T02:22:23.671Z,0.90
2023-06-14T02:25:26.538Z,1.15
2023-06-14T02:28:29.197Z,1.10
2023-06-14T02:31:31.814Z,0.98
2023-06-14T02:34:34.749Z,1.10
2023-06-14T02:37:37.307Z,1.20
2023-06-14T02:40:39.967Z,1.00
2023-06-14T02:43:42.984Z,0.95
2023-06-14T02:46:45.282Z,1.17
2023-06-14T02:49:47.614Z,1.00
2023-06-14T02:52:51.293Z,1.05
2023-06-14T02:55:54.761Z,1.08
2023-06-14T02:58:57.108Z,1.20
2023-06-14T03:01:59.863Z,1.08
2023-06-14T03:05:02.142Z,1.10
2023-06-14T03:08:05.945Z,1.10
2023-06-14T03:11:08.505Z,1.00
2023-06-14T03:14:12.144Z,1.00
2023-06-14T03:17:15.285Z,1.10
2023-06-14T03:20:18.767Z,1.30
2023-06-14T03:23:23.739Z,1.80
2023-06-14T03:26:26.890Z,3.53
2023-06-14T03:29:31.865Z,30.88
2023-06-14T03:32:34.671Z,43.90
2023-06-14T03:35:38.522Z,44.78
2023-06-14T03:38:40.888Z,37.45
2023-06-14T03:41:44.507Z,31.70
2023-06-14T03:44:48.467Z,28.02
2023-06-14T03:47:51.706Z,24.42
2023-06-14T03:50:54.598Z,22.08
2023-06-14T03:54:16.518Z,20.60
2023-06-14T03:57:20.737Z,20.52
2023-06-14T04:00:25.761Z,20.50
2023-06-14T04:03:29.485Z,18.85
2023-06-14T04:06:32.895Z,16.75
2023-06-14T04:09:35.899Z,14.88
2023-06-14T04:12:40.283Z,13.23
2023-06-14T04:15:43.815Z,14.25
2023-06-14T04:18:49.445Z,13.90
2023-06-14T04:21:52.235Z,12.65
2023-06-14T04:25:04.872Z,10.45
2023-06-14T04:28:09.181Z,9.63
2023-06-14T04:31:12.416Z,9.23
2023-06-14T04:34:14.884Z,7.78
2023-06-14T04:37:17.535Z,7.22
2023-06-14T04:40:21.509Z,6.85
2023-06-14T04:43:24.659Z,6.15
2023-06-14T04:46:27.699Z,6.20
2023-06-14T04:49:32.172Z,5.43
2023-06-14T04:52:34.639Z,5.50
2023-06-14T04:55:37.370Z,5.25
2023-06-14T04:58:41.232Z,4.68
2023-06-14T05:01:44.785Z,4.97
2023-06-14T05:04:47.508Z,4.32
2023-06-14T05:07:50.694Z,4.47
2023-06-14T05:10:53.872Z,4.07
2023-06-14T05:13:56.277Z,4.70
2023-06-14T05:16:59.615Z,5.20
2023-06-14T05:20:02.787Z,11.25
2023-06-14T05:23:05.548Z,18.10
2023-06-14T05:26:07.638Z,21.63
2023-06-14T05:29:09.966Z,21.23
2023-06-14T05:32:13.285Z,18.48
2023-06-14T05:35:16.589Z,17.27
2023-06-14T05:38:19.960Z,13.95
2023-06-14T05:41:23.573Z,13.50
2023-06-14T05:44:26.666Z,12.73
2023-06-14T05:47:29.438Z,12.20
2023-06-14T05:50:32.324Z,10.77
2023-06-14T05:53:35.764Z,9.30
2023-06-14T05:56:38.916Z,8.43
2023-06-14T05:59:41.717Z,7.88
2023-06-14T06:02:44.200Z,7.30
2023-06-14T06:05:46.626Z,7.07
2023-06-14T06:08:49.509Z,6.57
2023-06-14T06:11:53.993Z,6.53
2023-06-14T06:14:57.442Z,5.82
2023-06-14T06:18:00.384Z,5.70
2023-06-14T06:21:03.091Z,5.40
2023-06-14T06:24:06.978Z,5.57
2023-06-14T06:27:10.457Z,5.03
2023-06-14T06:30:13.606Z,5.72
2023-06-14T06:33:16.482Z,4.95
2023-06-14T06:36:19.602Z,4.40
2023-06-14T06:39:22.686Z,5.43
2023-06-14T06:42:25.774Z,4.88
2023-06-14T06:45:28.538Z,4.85
2023-06-14T06:48:31.951Z,4.90
2023-06-14T06:51:35.921Z,4.28
2023-06-14T06:54:39.281Z,3.53
2023-06-14T06:57:42.788Z,4.10
2023-06-14T07:00:46.104Z,3.55
2023-06-14T07:03:50.087Z,4.05
2023-06-14T07:06:52.819Z,3.83
2023-06-14T07:09:56.233Z,3.58
2023-06-14T07:12:59.650Z,3.35
2023-06-14T07:16:02.786Z,3.50
2023-06-14T07:19:05.779Z,3.10
2023-06-14T07:22:08.689Z,3.50
2023-06-14T07:25:11.374Z,3.05
2023-06-14T07:28:13.715Z,3.13
2023-06-14T07:31:16.457Z,3.17
2023-06-14T07:34:19.298Z,2.80
2023-06-14T07:37:22.519Z,3.00
2023-06-14T07:40:25.672Z,2.80
2023-06-14T07:43:28.932Z,2.90
2023-06-14T07:46:32.995Z,2.72
2023-06-14T07:49:35.561Z,2.50
2023-06-14T07:52:37.952Z,2.55
2023-06-14T07:55:52.474Z,2.33
2023-06-14T07:58:55.000Z,2.40
2023-06-14T08:01:58.068Z,2.00
2023-06-14T08:05:00.988Z,1.98
2023-06-14T08:08:03.952Z,1.95
2023-06-14T08:11:07.147Z,2.10
2023-06-14T08:14:10.455Z,1.85
2023-06-14T08:17:13.846Z,1.75
2023-06-14T08:20:17.322Z,1.90
2023-06-14T08:23:20.472Z,1.67
2023-06-14T08:26:23.056Z,1.80
2023-06-14T08:29:25.494Z,1.60
2023-06-14T08:32:29.045Z,1.60
2023-06-14T08:35:32.666Z,1.20
2023-06-14T08:38:35.775Z,1.40
2023-06-14T08:41:38.608Z,1.60
2023-06-14T08:44:41.469Z,1.50
2023-06-14T08:47:44.323Z,1.40
2023-06-14T08:50:47.147Z,1.10
2023-06-14T08:53:49.726Z,1.20
2023-06-14T08:56:53.219Z,1.10
2023-06-14T08:59:56.698Z,1.10
2023-06-14T09:03:00.049Z,1.35
2023-06-14T09:06:03.371Z,1.27
2023-06-14T09:09:05.903Z,1.42
2023-06-14T09:12:08.266Z,1.10
2023-06-14T09:15:10.447Z,1.20
2023-06-14T09:18:13.630Z,1.10
2023-06-14T09:21:17.156Z,1.10
2023-06-14T09:24:19.918Z,1.00
2023-06-14T09:27:22.187Z,0.90
2023-06-14T09:30:24.563Z,0.80
2023-06-14T09:33:27.412Z,0.90
2023-06-14T09:36:30.888Z,0.80
2023-06-14T09:39:34.904Z,0.90
2023-06-14T09:42:38.221Z,0.80
2023-06-14T09:45:40.691Z,0.82
2023-06-14T09:48:43.929Z,0.80
2023-06-14T09:51:46.418Z,0.80
2023-06-14T09:54:48.864Z,0.80
2023-06-14T09:57:51.626Z,0.80
2023-06-14T10:00:54.440Z,0.70
2023-06-14T10:04:06.859Z,0.70
2023-06-14T10:07:12.424Z,0.70
2023-06-14T10:10:15.971Z,0.70
2023-06-14T10:13:19.813Z,0.80
2023-06-14T10:16:22.526Z,0.60
2023-06-14T10:19:24.965Z,0.60
2023-06-14T10:22:28.019Z,0.68
2023-06-14T10:25:30.656Z,0.60
2023-06-14T10:28:33.133Z,0.80
2023-06-14T10:31:36.617Z,0.50
2023-06-14T10:34:39.758Z,0.70
2023-06-14T10:37:42.768Z,0.70
2023-06-14T10:40:46.103Z,0.80
2023-06-14T10:43:49.515Z,0.68
2023-06-14T10:46:52.495Z,0.50
2023-06-14T10:49:55.452Z,0.68
2023-06-14T10:52:58.425Z,0.57
2023-06-14T10:56:01.554Z,0.50
2023-06-14T10:59:04.522Z,0.60
2023-06-14T11:02:07.180Z,0.32
2023-06-14T11:05:10.237Z,0.60
2023-06-14T11:08:13.402Z,0.60
2023-06-14T11:11:17.237Z,0.63
2023-06-14T11:14:20.674Z,0.50
2023-06-14T11:17:24.179Z,0.60
2023-06-14T11:20:28.652Z,0.60
2023-06-14T11:23:31.596Z,0.50
2023-06-14T11:26:34.800Z,0.65
2023-06-14T11:29:38.278Z,0.50
2023-06-14T11:32:41.009Z,0.60
2023-06-14T11:35:43.386Z,0.80
2023-06-14T11:38:45.878Z,0.55
2023-06-14T11:41:48.619Z,0.60
2023-06-14T11:44:51.722Z,0.70
2023-06-14T11:47:54.330Z,0.50
2023-06-14T11:50:57.047Z,0.60
2023-06-14T11:53:59.883Z,0.70
2023-06-14T11:57:02.987Z,0.52
2023-06-14T12:00:05.947Z,0.65
2023-06-14T12:06:18.488Z,0.45
2023-06-14T12:09:21.627Z,0.60
2023-06-14T12:12:24.367Z,0.47
2023-06-14T12:15:26.905Z,0.60
2023-06-14T12:18:30.731Z,0.50
2023-06-14T12:21:33.824Z,0.52
2023-06-14T12:24:36.510Z,0.50
2023-06-14T12:27:39.414Z,0.40
2023-06-14T12:30:42.644Z,0.50
2023-06-14T12:33:46.526Z,0.50
2023-06-14T12:36:49.425Z,0.57
2023-06-14T12:39:52.097Z,0.50
2023-06-14T12:42:54.984Z,0.65
2023-06-14T12:45:58.321Z,0.50
2023-06-14T12:49:01.529Z,0.50
2023-06-14T12:52:03.833Z,0.50
2023-06-14T12:55:06.540Z,0.60
2023-06-14T12:58:09.418Z,0.60
2023-06-14T13:01:12.253Z,1.10
2023-06-14T13:04:15.345Z,0.93
2023-06-14T13:07:18.184Z,1.20
2023-06-14T13:10:20.873Z,1.20
2023-06-14T13:13:24.013Z,1.30
2023-06-14T13:16:27.632Z,1.20
2023-06-14T13:19:31.297Z,1.40
2023-06-14T13:22:34.987Z,1.48
2023-06-14T13:25:37.533Z,1.10
2023-06-14T13:28:40.474Z,0.90
2023-06-14T13:31:44.058Z,1.10
2023-06-14T13:34:46.469Z,1.00
2023-06-14T13:37:49.402Z,1.00
2023-06-14T13:40:52.469Z,1.20
2023-06-14T13:43:55.220Z,1.00
2023-06-14T13:46:58.199Z,1.00
2023-06-14T13:50:01.404Z,0.98
2023-06-14T13:53:04.583Z,0.90
2023-06-14T13:56:07.877Z,0.80
2023-06-14T13:59:11.257Z,1.20
2023-06-14T14:02:14.190Z,1.10
2023-06-14T14:05:17.365Z,0.80
2023-06-14T14:08:21.105Z,0.90
2023-06-14T14:11:24.740Z,0.95
2023-06-14T14:14:28.066Z,1.10
2023-06-14T14:17:30.463Z,0.88
2023-06-14T14:20:32.731Z,1.13
2023-06-14T14:23:35.039Z,0.90
2023-06-14T14:26:37.852Z,0.82
2023-06-14T14:29:40.614Z,1.00
2023-06-14T14:32:43.655Z,0.90
2023-06-14T14:35:46.924Z,0.90
2023-06-14T14:38:49.828Z,0.90
2023-06-14T14:41:53.224Z,1.10
2023-06-14T14:44:56.557Z,1.05
2023-06-14T14:47:59.688Z,0.90
2023-06-14T14:51:02.583Z,0.95
2023-06-14T14:54:05.204Z,0.82
2023-06-14T14:57:08.260Z,0.90
2023-06-14T15:00:11.367Z,0.90
2023-06-14T15:03:14.407Z,0.90
2023-06-14T15:06:18.124Z,1.00
2023-06-14T15:09:20.515Z,1.00
2023-06-14T15:12:23.566Z,0.90
2023-06-14T15:15:27.063Z,1.20
2023-06-14T15:18:30.009Z,0.90
2023-06-14T15:21:33.238Z,0.95
2023-06-14T15:24:43.538Z,0.90
2023-06-14T15:27:47.494Z,0.80
2023-06-14T15:30:50.897Z,1.20
2023-06-14T15:33:53.966Z,1.13
2023-06-14T15:36:57.109Z,1.08
2023-06-14T15:40:00.196Z,1.00
2023-06-14T15:43:03.063Z,0.90
2023-06-14T15:46:06.591Z,1.00
2023-06-14T15:49:09.646Z,1.02
2023-06-14T15:52:12.605Z,0.88
2023-06-14T15:55:16.180Z,1.00
2023-06-14T15:58:19.357Z,1.08
2023-06-14T16:01:22.725Z,1.10
2023-06-14T16:04:25.435Z,1.20
2023-06-14T16:07:28.536Z,1.00
2023-06-14T16:10:30.788Z,1.00
2023-06-14T16:13:34.077Z,1.05
2023-06-14T16:16:37.530Z,1.10
2023-06-14T16:19:40.703Z,0.82
2023-06-14T16:22:43.770Z,0.90
2023-06-14T16:25:47.401Z,0.88
2023-06-14T16:28:50.182Z,1.00
2023-06-14T16:31:52.509Z,0.82
2023-06-14T16:34:55.261Z,1.00
2023-06-14T16:37:57.871Z,1.30
2023-06-14T16:41:01.282Z,1.65
2023-06-14T16:44:04.913Z,0.98
2023-06-14T16:47:07.631Z,1.20
2023-06-14T16:50:10.667Z,1.00
2023-06-14T16:53:13.770Z,1.02
2023-06-14T16:56:16.637Z,1.10
2023-06-14T16:59:19.552Z,1.10
2023-06-14T17:02:22.282Z,1.00
2023-06-14T17:05:25.211Z,1.10
2023-06-14T17:08:28.124Z,1.13
2023-06-14T17:11:30.162Z,1.00
2023-06-14T17:14:32.586Z,0.95
2023-06-14T17:17:35.555Z,1.25
2023-06-14T17:20:38.564Z,0.95
2023-06-14T17:23:41.297Z,1.15
2023-06-14T17:26:46.627Z,1.10
2023-06-14T17:29:51.890Z,1.17
2023-06-14T17:32:55.182Z,0.93
2023-06-14T17:35:57.710Z,0.98
2023-06-14T17:39:00.185Z,0.98
2023-06-14T17:42:02.424Z,0.90
2023-06-14T17:45:05.611Z,1.00
2023-06-14T17:48:08.421Z,1.00
2023-06-14T17:51:11.210Z,1.30
2023-06-14T17:54:13.980Z,1.10
2023-06-14T17:57:17.062Z,1.25
2023-06-14T18:00:20.163Z,1.27
2023-06-14T18:03:23.685Z,1.17
2023-06-14T18:06:26.213Z,1.00
2023-06-14T18:09:29.464Z,1.10
2023-06-14T18:12:32.972Z,1.02
2023-06-14T18:15:35.925Z,1.00
2023-06-14T18:18:38.652Z,0.90
2023-06-14T18:21:41.442Z,1.20
2023-06-14T18:24:44.943Z,0.90
2023-06-14T18:27:47.979Z,1.10
2023-06-14T18:30:51.572Z,0.98
2023-06-14T18:33:54.027Z,1.23
2023-06-14T18:36:58.009Z,1.10
2023-06-14T18:40:01.839Z,1.00
2023-06-14T18:43:05.473Z,1.20
2023-06-14T18:46:09.523Z,1.10
2023-06-14T18:49:12.808Z,1.13
2023-06-14T18:52:16.448Z,1.00
2023-06-14T18:55:20.546Z,1.08
2023-06-14T18:58:24.264Z,1.10
2023-06-14T19:01:27.450Z,2.00
2023-06-14T19:04:30.749Z,1.10
2023-06-14T19:07:33.421Z,1.30
2023-06-14T19:10:36.550Z,1.08
2023-06-14T19:13:39.484Z,1.10
2023-06-14T19:16:42.743Z,1.15
2023-06-14T19:19:46.742Z,1.13
2023-06-14T19:22:49.971Z,1.08
2023-06-14T19:25:53.298Z,1.10
2023-06-14T19:28:55.963Z,1.20
2023-06-14T19:31:58.780Z,1.23
2023-06-14T19:35:02.230Z,1.23
2023-06-14T19:38:06.076Z,1.20
2023-06-14T19:41:09.452Z,1.20
2023-06-14T19:44:12.148Z,1.23
2023-06-14T19:47:15.412Z,1.10
2023-06-14T19:50:19.542Z,1.30
2023-06-14T19:53:23.867Z,1.00
2023-06-14T19:56:27.052Z,1.10
2023-06-14T19:59:29.716Z,1.00
2023-06-14T20:02:32.446Z,0.93
2023-06-14T20:05:35.581Z,0.88
2023-06-14T20:08:38.005Z,1.00
2023-06-14T20:11:40.578Z,0.80
2023-06-14T20:14:43.062Z,0.80
2023-06-14T20:17:45.614Z,1.00
2023-06-14T20:20:47.947Z,1.08
2023-06-14T20:23:51.174Z,1.00
2023-06-14T20:26:54.419Z,0.95
2023-06-14T20:29:57.064Z,0.80
2023-06-14T20:32:59.621Z,0.98
2023-06-14T20:36:02.439Z,0.90
2023-06-14T20:39:05.556Z,0.80
2023-06-14T20:42:16.860Z,0.90
2023-06-14T20:45:27.990Z,0.82
2023-06-14T20:48:30.743Z,0.70
2023-06-14T20:51:33.249Z,0.70
2023-06-14T20:54:37.052Z,0.90
2023-06-14T20:57:40.582Z,0.60
2023-06-14T21:00:43.437Z,0.70
2023-06-14T21:03:46.292Z,0.80
2023-06-14T21:06:49.129Z,0.70
2023-06-14T21:09:52.145Z,0.70
2023-06-14T21:12:54.743Z,0.60
2023-06-14T21:15:57.539Z,0.75
2023-06-14T21:19:00.048Z,0.65
2023-06-14T21:22:02.984Z,0.70
2023-06-14T21:25:06.831Z,0.80
2023-06-14T21:28:10.186Z,0.60
2023-06-14T21:31:12.983Z,0.70
2023-06-14T21:34:15.606Z,0.60
2023-06-14T21:37:18.769Z,0.60
2023-06-14T21:40:21.516Z,0.70
2023-06-14T21:43:23.812Z,0.90
2023-06-14T21:46:26.369Z,1.02
2023-06-14T21:49:29.472Z,0.88
2023-06-14T21:52:31.870Z,0.68
2023-06-14T21:55:34.558Z,0.68
2023-06-14T21:58:38.346Z,0.60
2023-06-14T22:01:41.884Z,0.80
2023-06-14T22:04:45.532Z,0.60
2023-06-14T22:07:48.897Z,0.68
2023-06-14T22:10:51.454Z,0.80
2023-06-14T22:13:54.309Z,0.68
2023-06-14T22:16:57.024Z,0.70
2023-06-14T22:20:00.668Z,0.70
2023-06-14T22:23:03.359Z,0.60
2023-06-14T22:26:06.506Z,0.70
2023-06-14T22:29:09.220Z,0.68
2023-06-14T22:32:12.842Z,0.60
2023-06-14T22:35:15.198Z,0.60
2023-06-14T22:38:18.078Z,0.73
2023-06-14T22:41:21.676Z,0.70
2023-06-14T22:44:24.856Z,0.63
2023-06-14T22:47:27.973Z,0.60
2023-06-14T22:50:30.442Z,0.68
2023-06-14T22:53:33.908Z,0.60
2023-06-14T22:56:36.442Z,0.60
2023-06-14T22:59:38.818Z,0.70
2023-06-14T23:02:41.626Z,0.60
2023-06-14T23:05:44.452Z,0.90
2023-06-14T23:08:47.211Z,0.60
2023-06-14T23:11:50.007Z,0.68
2023-06-14T23:14:52.762Z,0.60
2023-06-14T23:17:55.900Z,0.60
2023-06-14T23:20:59.531Z,0.77
2023-06-14T23:24:02.230Z,0.73
2023-06-14T23:27:04.830Z,0.60
2023-06-14T23:30:08.087Z,0.82
2023-06-14T23:33:11.121Z,0.60
2023-06-14T23:36:14.331Z,0.77
2023-06-14T23:39:18.448Z,0.68
2023-06-14T23:42:22.428Z,0.57
2023-06-14T23:45:25.560Z,0.80
2023-06-14T23:48:28.581Z,0.70
2023-06-14T23:51:31.423Z,0.60
2023-06-14T23:54:34.713Z,0.70
2023-06-14T23:57:38.610Z,0.70
